createdAt,value
2022-11-19T00:01:36.391Z,90.70
2022-11-19T00:04:24.112Z,90.50
2022-11-19T00:07:11.506Z,90.30
2022-11-19T00:09:58.933Z,90.50
2022-11-19T00:12:55.248Z,90.40
2022-11-19T00:15:42.675Z,89.50
2022-11-19T00:18:30.682Z,89.80
2022-11-19T00:21:18.035Z,90.10
2022-11-19T00:24:06.359Z,88.70
2022-11-19T00:26:53.821Z,87.80
2022-11-19T00:29:41.209Z,87.90
2022-11-19T00:32:28.733Z,86.90
2022-11-19T00:35:16.205Z,87.30
2022-11-19T00:38:03.876Z,87.30
2022-11-19T00:40:51.502Z,86.80
2022-11-19T00:43:48.469Z,86.40
2022-11-19T00:46:36.338Z,86.50
2022-11-19T00:49:25.026Z,86.60
2022-11-19T00:52:12.985Z,87.10
2022-11-19T00:55:00.472Z,87.30
2022-11-19T00:57:47.845Z,86.90
2022-11-19T01:00:35.397Z,86.90
2022-11-19T01:03:24.544Z,86.30
2022-11-19T01:06:17.837Z,86.00
2022-11-19T01:09:07.172Z,85.90
2022-11-19T01:11:54.542Z,85.50
2022-11-19T01:14:41.919Z,86.00
2022-11-19T01:17:29.855Z,85.90
2022-11-19T01:20:17.482Z,85.60
2022-11-19T01:23:04.940Z,85.00
2022-11-19T01:25:52.411Z,84.90
2022-11-19T01:28:41.052Z,85.40
2022-11-19T01:31:30.376Z,84.00
2022-11-19T01:34:17.744Z,84.40
2022-11-19T01:37:05.130Z,84.70
2022-11-19T01:39:52.546Z,84.40
2022-11-19T01:42:51.801Z,84.40
2022-11-19T01:45:49.830Z,84.40
2022-11-19T01:48:48.199Z,84.90
2022-11-19T01:51:44.039Z,85.30
2022-11-19T01:54:54.046Z,85.50
2022-11-19T01:57:41.841Z,85.00
2022-11-19T02:00:29.825Z,85.90
2022-11-19T02:03:18.939Z,85.90
2022-11-19T02:06:08.295Z,85.50
2022-11-19T02:08:56.086Z,85.30
2022-11-19T02:12:04.585Z,86.10
2022-11-19T02:15:27.211Z,86.30
2022-11-19T02:18:42.449Z,85.90
2022-11-19T02:21:46.109Z,86.00
2022-11-19T02:24:55.853Z,85.00
2022-11-19T02:28:01.489Z,85.80
2022-11-19T02:30:54.173Z,85.00
2022-11-19T02:33:56.512Z,85.00
2022-11-19T02:37:10.465Z,84.20
2022-11-19T02:40:09.589Z,84.20
2022-11-19T02:43:16.997Z,83.90
2022-11-19T02:46:14.724Z,84.20
2022-11-19T02:49:02.765Z,84.00
2022-11-19T02:51:50.593Z,83.50
2022-11-19T02:54:38.821Z,82.70
2022-11-19T02:57:26.170Z,83.40
2022-11-19T03:00:33.336Z,84.70
2022-11-19T03:03:40.790Z,83.30
2022-11-19T03:06:32.756Z,82.70
2022-11-19T03:09:21.720Z,83.80
2022-11-19T03:12:23.271Z,84.40
2022-11-19T03:16:05.522Z,84.00
2022-11-19T03:19:26.681Z,82.70
2022-11-19T03:22:25.298Z,81.60
2022-11-19T03:25:38.790Z,81.80
2022-11-19T03:28:34.443Z,81.70
2022-11-19T03:31:26.051Z,81.70
2022-11-19T03:34:20.493Z,81.30
2022-11-19T03:37:10.906Z,81.00
2022-11-19T03:40:02.015Z,81.80
2022-11-19T03:42:55.611Z,81.70
2022-11-19T03:45:47.602Z,80.50
2022-11-19T03:48:39.563Z,79.20
2022-11-19T03:51:57.241Z,79.30
2022-11-19T03:54:44.772Z,80.40
2022-11-19T03:57:32.211Z,79.30
2022-11-19T04:00:19.837Z,79.80
2022-11-19T04:03:07.292Z,79.70
2022-11-19T04:05:54.613Z,79.10
2022-11-19T04:08:42.029Z,79.40
2022-11-19T04:11:31.517Z,79.20
2022-11-19T04:14:18.898Z,79.00
2022-11-19T04:17:06.301Z,78.60
2022-11-19T04:19:54.070Z,79.10
2022-11-19T04:22:42.193Z,78.50
2022-11-19T04:25:29.560Z,78.10
2022-11-19T04:28:17.104Z,78.60
2022-11-19T04:31:04.525Z,78.10
2022-11-19T04:33:51.846Z,78.10
2022-11-19T04:36:41.770Z,78.10
2022-11-19T04:39:29.250Z,77.50
2022-11-19T04:42:16.602Z,77.80
2022-11-19T04:45:04.410Z,78.40
2022-11-19T04:47:51.778Z,77.70
2022-11-19T04:50:41.878Z,77.50
2022-11-19T04:53:29.334Z,77.60
2022-11-19T04:56:17.097Z,77.00
2022-11-19T04:59:05.334Z,77.60
2022-11-19T05:01:53.429Z,77.30
2022-11-19T05:04:42.951Z,76.90
2022-11-19T05:07:30.539Z,76.70
2022-11-19T05:10:18.084Z,76.80
2022-11-19T05:13:05.506Z,77.20
2022-11-19T05:15:53.257Z,77.50
2022-11-19T05:18:40.682Z,77.60
2022-11-19T05:21:28.166Z,77.00
2022-11-19T05:24:15.622Z,77.30
2022-11-19T05:27:03.824Z,76.50
2022-11-19T05:29:51.283Z,76.90
2022-11-19T05:32:39.027Z,76.70
2022-11-19T05:35:26.732Z,76.10
2022-11-19T05:38:14.126Z,76.50
2022-11-19T05:41:01.551Z,76.30
2022-11-19T05:43:48.959Z,75.80
2022-11-19T05:46:36.841Z,75.30
2022-11-19T05:49:24.294Z,75.60
2022-11-19T05:52:12.050Z,76.10
2022-11-19T05:54:59.404Z,75.10
2022-11-19T05:57:46.872Z,75.20
2022-11-19T06:00:34.245Z,75.30
2022-11-19T06:03:21.724Z,75.00
2022-11-19T06:06:09.470Z,75.20
2022-11-19T06:08:58.875Z,74.90
2022-11-19T06:11:50.352Z,75.20
2022-11-19T06:14:37.966Z,75.30
2022-11-19T06:17:25.561Z,75.60
2022-11-19T06:20:13.092Z,75.50
2022-11-19T06:23:00.523Z,75.80
2022-11-19T06:25:50.612Z,76.00
2022-11-19T06:28:37.953Z,75.90
2022-11-19T06:31:25.499Z,75.80
2022-11-19T06:34:13.017Z,76.20
2022-11-19T06:37:00.453Z,76.00
2022-11-19T06:39:48.054Z,76.50
2022-11-19T06:42:38.443Z,76.30
2022-11-19T06:45:25.864Z,76.70
2022-11-19T06:48:13.331Z,76.70
2022-11-19T06:51:02.040Z,76.30
2022-11-19T06:53:49.525Z,75.90
2022-11-19T06:56:36.977Z,75.00
2022-11-19T06:59:24.383Z,75.00
2022-11-19T07:02:13.082Z,75.00
2022-11-19T07:05:00.490Z,74.90
2022-11-19T07:07:47.845Z,75.00
2022-11-19T07:10:35.782Z,74.70
2022-11-19T07:13:23.371Z,74.90
2022-11-19T07:16:10.737Z,74.60
2022-11-19T07:19:04.791Z,75.10
2022-11-19T07:21:52.228Z,75.30
2022-11-19T07:24:39.557Z,75.30
2022-11-19T07:27:26.923Z,74.60
2022-11-19T07:30:15.949Z,74.60
2022-11-19T07:33:03.528Z,74.70
2022-11-19T07:35:51.095Z,75.40
2022-11-19T07:38:39.336Z,74.70
2022-11-19T07:41:44.815Z,74.10
2022-11-19T07:44:32.186Z,74.40
2022-11-19T07:47:19.633Z,73.90
2022-11-19T07:50:07.493Z,74.00
2022-11-19T07:52:59.293Z,74.00
2022-11-19T07:55:47.976Z,73.90
2022-11-19T07:58:35.393Z,73.40
2022-11-19T08:01:24.767Z,73.20
2022-11-19T08:04:12.242Z,74.10
2022-11-19T08:06:59.589Z,73.70
2022-11-19T08:14:23.713Z,74.00
2022-11-19T08:17:09.433Z,72.90
2022-11-19T08:19:36.688Z,73.00
2022-11-19T08:22:03.674Z,72.30
2022-11-19T08:24:30.695Z,72.60
2022-11-19T08:26:57.770Z,72.70
2022-11-19T08:29:25.152Z,71.80
2022-11-19T08:31:52.587Z,71.80
2022-11-19T08:34:20.223Z,72.60
2022-11-19T08:36:47.747Z,72.80
2022-11-19T08:39:15.184Z,72.30
2022-11-19T08:42:01.282Z,72.10
2022-11-19T08:44:28.930Z,70.50
2022-11-19T08:46:56.180Z,70.90
2022-11-19T08:49:23.563Z,71.70
2022-11-19T08:51:50.885Z,71.30
2022-11-19T08:54:18.584Z,70.80
2022-11-19T08:56:46.319Z,69.30
2022-11-19T08:59:13.583Z,68.50
2022-11-19T09:01:40.886Z,69.10
2022-11-19T09:04:08.132Z,68.40
2022-11-19T09:06:35.683Z,68.90
2022-11-19T09:09:04.527Z,68.80
2022-11-19T09:11:32.196Z,68.10
2022-11-19T09:13:59.680Z,67.50
2022-11-19T09:16:27.280Z,66.80
2022-11-19T09:18:54.564Z,67.40
2022-11-19T09:21:21.920Z,67.30
2022-11-19T09:23:49.099Z,66.60
2022-11-19T09:26:19.073Z,66.00
2022-11-19T09:28:46.700Z,66.70
2022-11-19T09:31:17.919Z,67.30
2022-11-19T09:33:49.958Z,67.40
2022-11-19T09:36:19.597Z,66.50
2022-11-19T09:38:48.305Z,66.40
2022-11-19T09:41:46.433Z,66.60
2022-11-19T09:44:54.885Z,67.20
2022-11-19T09:48:02.915Z,65.90
2022-11-19T09:50:51.833Z,66.00
2022-11-19T09:53:23.271Z,64.20
2022-11-19T09:55:54.139Z,63.60
2022-11-19T09:58:41.542Z,64.60
2022-11-19T10:01:15.112Z,64.20
2022-11-19T10:03:50.013Z,65.00
2022-11-19T10:06:42.717Z,65.00
2022-11-19T10:09:45.392Z,65.10
2022-11-19T10:13:12.282Z,64.00
2022-11-19T10:16:39.982Z,64.80
2022-11-19T10:19:22.226Z,64.70
2022-11-19T10:22:17.358Z,63.90
2022-11-19T10:25:14.603Z,61.80
2022-11-19T10:28:08.462Z,62.90
2022-11-19T10:30:37.320Z,62.90
2022-11-19T10:33:32.680Z,62.50
2022-11-19T10:36:12.285Z,61.20
2022-11-19T10:39:01.065Z,60.30
2022-11-19T10:41:57.991Z,60.90
2022-11-19T10:44:45.925Z,60.90
2022-11-19T10:48:12.594Z,61.40
2022-11-19T10:50:42.082Z,60.80
2022-11-19T10:53:23.969Z,61.20
2022-11-19T10:55:57.614Z,60.70
2022-11-19T10:58:39.672Z,61.00
2022-11-19T11:01:31.412Z,59.90
2022-11-19T11:04:21.423Z,60.70
2022-11-19T11:07:05.558Z,60.90
2022-11-19T11:09:41.669Z,61.00
2022-11-19T11:12:41.145Z,60.70
2022-11-19T11:15:25.197Z,60.90
2022-11-19T11:18:06.667Z,60.60
2022-11-19T11:20:36.363Z,59.90
2022-11-19T11:23:26.471Z,58.40
2022-11-19T11:26:00.110Z,58.40
2022-11-19T11:28:27.670Z,58.70
2022-11-19T11:31:03.724Z,58.70
2022-11-19T11:33:55.395Z,58.30
2022-11-19T11:36:27.833Z,57.20
2022-11-19T11:39:00.242Z,57.20
2022-11-19T11:44:36.918Z,58.00
2022-11-19T11:47:23.574Z,57.90
2022-11-19T11:50:20.011Z,57.70
2022-11-19T11:52:54.129Z,57.90
2022-11-19T11:55:24.148Z,57.50
2022-11-19T11:58:02.430Z,57.50
2022-11-19T12:00:46.105Z,58.10
2022-11-19T12:03:20.380Z,56.70
2022-11-19T12:06:06.006Z,57.00
2022-11-19T12:09:03.564Z,56.80
2022-11-19T12:11:56.244Z,56.70
2022-11-19T12:14:47.123Z,57.00
2022-11-19T12:17:57.718Z,57.60
2022-11-19T12:20:47.793Z,56.60
2022-11-19T12:23:47.983Z,57.00
2022-11-19T12:26:40.158Z,57.30
2022-11-19T12:29:26.142Z,57.60
2022-11-19T12:32:17.458Z,56.90
2022-11-19T12:35:32.189Z,57.60
2022-11-19T12:38:05.737Z,58.10
2022-11-19T12:41:10.183Z,57.80
2022-11-19T12:44:03.139Z,57.20
2022-11-19T12:47:05.575Z,56.90
2022-11-19T12:50:04.001Z,57.40
2022-11-19T12:53:34.990Z,56.30
2022-11-19T12:56:23.835Z,57.20
2022-11-19T12:59:45.670Z,57.80
2022-11-19T13:02:29.936Z,57.50
2022-11-19T13:05:14.273Z,57.40
2022-11-19T13:08:12.550Z,57.50
2022-11-19T13:10:49.397Z,57.50
2022-11-19T13:13:25.503Z,57.40
2022-11-19T13:16:07.523Z,57.20
2022-11-19T13:18:40.078Z,57.40
2022-11-19T13:21:25.421Z,57.30
2022-11-19T13:23:55.879Z,57.30
2022-11-19T13:26:31.652Z,56.80
2022-11-19T13:29:29.163Z,57.20
2022-11-19T13:32:04.397Z,56.50
2022-11-19T13:34:41.996Z,56.90
2022-11-19T13:37:19.644Z,57.30
2022-11-19T13:39:59.996Z,56.80
2022-11-19T13:43:04.121Z,56.70
2022-11-19T13:45:42.557Z,57.00
2022-11-19T13:48:39.817Z,56.70
2022-11-19T13:51:43.260Z,56.70
2022-11-19T13:54:41.377Z,56.90
2022-11-19T13:57:43.231Z,57.10
2022-11-19T14:00:28.908Z,57.20
2022-11-19T14:03:01.700Z,57.30
2022-11-19T14:06:14.303Z,57.50
2022-11-19T14:09:00.418Z,57.40
2022-11-19T14:11:50.088Z,57.30
2022-11-19T14:15:12.514Z,57.30
2022-11-19T14:18:36.209Z,57.30
2022-11-19T14:22:12.598Z,57.30
2022-11-19T14:24:58.473Z,57.40
2022-11-19T14:27:30.325Z,57.50
2022-11-19T14:30:20.157Z,57.50
2022-11-19T14:32:51.762Z,57.50
2022-11-19T14:35:35.705Z,57.60
2022-11-19T14:38:35.033Z,57.70
2022-11-19T14:41:20.935Z,57.70
2022-11-19T14:44:08.725Z,57.80
2022-11-19T16:45:35.971Z,62.70
2022-11-19T16:48:03.405Z,63.10
2022-11-19T16:50:42.321Z,64.90
2022-11-19T16:53:12.601Z,66.00
2022-11-19T17:07:32.538Z,66.50
2022-11-19T17:10:24.248Z,66.70
2022-11-19T17:13:23.718Z,66.40
2022-11-19T17:15:51.782Z,66.10
2022-11-19T17:18:34.429Z,65.90
2022-11-19T17:21:23.568Z,65.90
2022-11-19T17:23:52.100Z,65.80
2022-11-19T17:26:23.880Z,65.70
2022-11-19T17:28:59.673Z,65.30
2022-11-19T17:31:28.258Z,65.10
2022-11-19T17:34:19.284Z,65.00
2022-11-19T17:36:47.032Z,65.20
2022-11-19T17:39:15.010Z,65.00
2022-11-19T17:42:03.070Z,65.00
2022-11-19T17:44:34.531Z,65.20
2022-11-19T17:47:21.860Z,65.00
2022-11-19T17:49:50.658Z,64.90
2022-11-19T17:52:33.383Z,64.70
2022-11-19T17:55:30.945Z,64.50
2022-11-19T17:57:58.265Z,64.60
2022-11-19T18:00:25.677Z,64.60
2022-11-19T18:03:29.793Z,64.70
2022-11-19T18:05:57.159Z,64.50
2022-11-19T18:08:24.441Z,64.60
2022-11-19T18:10:52.929Z,64.60
2022-11-19T18:13:26.994Z,64.70
2022-11-19T18:15:54.535Z,64.50
2022-11-19T18:18:21.789Z,64.20
2022-11-19T18:20:50.542Z,64.60
2022-11-19T18:23:17.864Z,64.70
2022-11-19T18:25:45.531Z,64.50
2022-11-19T18:28:12.724Z,64.50
2022-11-19T18:30:40.106Z,64.50
2022-11-19T18:33:10.350Z,64.50
2022-11-19T18:35:37.682Z,64.30
2022-11-19T18:38:04.973Z,64.30
2022-11-19T18:40:32.281Z,64.30
2022-11-19T18:47:23.364Z,62.40
2022-11-19T18:49:50.669Z,62.40
2022-11-19T18:52:18.211Z,63.20
2022-11-19T18:54:45.865Z,63.80
2022-11-19T18:57:13.500Z,64.00
2022-11-19T18:59:41.541Z,64.30
2022-11-19T19:02:10.807Z,64.30
2022-11-19T19:04:38.257Z,64.50
2022-11-19T19:07:05.774Z,64.50
2022-11-19T19:09:33.206Z,64.60
2022-11-19T19:12:18.382Z,64.70
2022-11-19T19:14:49.191Z,64.50
2022-11-19T19:17:17.347Z,64.30
2022-11-19T19:19:45.791Z,64.20
2022-11-19T19:22:13.264Z,63.90
2022-11-19T19:24:40.616Z,63.90
2022-11-19T19:27:07.798Z,64.00
2022-11-19T19:29:35.164Z,64.00
2022-11-19T19:32:02.481Z,64.20
2022-11-19T19:34:30.195Z,64.30
2022-11-19T19:36:57.682Z,64.40
2022-11-19T19:39:24.969Z,64.40
2022-11-19T19:41:53.647Z,64.30
2022-11-19T19:44:20.945Z,64.20
2022-11-19T19:46:49.061Z,64.10
2022-11-19T19:49:16.411Z,63.90
2022-11-19T19:51:43.702Z,63.70
2022-11-19T19:54:11.051Z,63.60
2022-11-19T19:56:39.876Z,63.20
2022-11-19T19:59:07.192Z,63.30
2022-11-19T20:01:36.565Z,63.20
2022-11-19T20:04:08.808Z,63.30
2022-11-19T20:06:41.580Z,63.30
2022-11-19T20:09:09.638Z,63.00
2022-11-19T20:11:38.684Z,62.70
2022-11-19T20:14:06.080Z,62.60
2022-11-19T20:16:35.119Z,62.40
2022-11-19T20:19:03.364Z,62.40
2022-11-19T20:21:34.210Z,62.20
2022-11-19T20:24:04.892Z,61.90
2022-11-19T20:26:35.951Z,61.20
2022-11-19T20:29:06.280Z,60.90
2022-11-19T20:31:35.393Z,60.70
2022-11-19T20:34:05.554Z,60.60
2022-11-19T20:36:35.411Z,60.80
2022-11-19T20:39:04.033Z,60.70
2022-11-19T20:41:50.327Z,60.90
2022-11-19T20:44:22.782Z,60.90
2022-11-19T20:46:54.888Z,61.00
2022-11-19T20:49:25.617Z,60.90
2022-11-19T20:51:54.157Z,60.90
2022-11-19T20:54:21.999Z,60.40
2022-11-19T20:56:50.832Z,60.60
2022-11-19T20:59:19.461Z,60.80
2022-11-19T21:01:50.164Z,60.80
2022-11-19T21:04:18.933Z,60.10
2022-11-19T21:06:46.881Z,60.00
2022-11-19T21:09:15.956Z,60.10
2022-11-19T21:11:44.103Z,60.10
2022-11-19T21:14:12.611Z,60.20
2022-11-19T21:16:39.790Z,60.20
2022-11-19T21:19:07.065Z,60.20
2022-11-19T21:21:35.497Z,60.40
2022-11-19T21:24:03.119Z,60.60
2022-11-19T21:26:30.490Z,60.50
2022-11-19T21:28:59.450Z,60.50
2022-11-19T21:31:45.350Z,60.70
2022-11-19T21:34:18.542Z,60.80
2022-11-19T21:36:47.679Z,60.50
2022-11-19T21:39:17.276Z,60.60
2022-11-19T21:41:45.372Z,60.70
2022-11-19T21:44:16.733Z,60.70
2022-11-19T21:46:46.921Z,60.90
2022-11-19T21:49:14.214Z,60.90
2022-11-19T21:51:41.491Z,60.90
2022-11-19T21:54:08.813Z,60.60
2022-11-19T21:56:38.789Z,60.60
2022-11-19T21:59:07.372Z,60.70
2022-11-19T22:01:34.869Z,60.50
2022-11-19T22:04:02.892Z,60.40
2022-11-19T22:06:31.998Z,60.00
2022-11-19T22:08:59.229Z,59.90
2022-11-19T22:11:29.251Z,59.70
2022-11-19T22:14:08.426Z,59.80
2022-11-19T22:16:39.521Z,59.90
2022-11-19T22:19:07.385Z,59.90
2022-11-19T22:21:34.788Z,60.10
2022-11-19T22:24:02.815Z,60.10
2022-11-19T22:26:30.582Z,60.20
2022-11-19T22:28:58.452Z,60.10
2022-11-19T22:31:26.324Z,60.30
2022-11-19T22:33:54.067Z,60.30
2022-11-19T22:36:23.408Z,60.10
2022-11-19T22:38:52.268Z,60.40
2022-11-19T22:41:21.699Z,61.00
2022-11-19T22:43:50.413Z,60.40
2022-11-19T22:46:19.604Z,60.60
2022-11-19T22:48:47.022Z,60.70
2022-11-19T22:51:17.272Z,60.60
2022-11-19T22:53:45.145Z,60.40
2022-11-19T22:56:17.278Z,60.40
2022-11-19T22:58:44.749Z,60.40
2022-11-19T23:01:18.393Z,60.50
2022-11-19T23:03:46.984Z,60.60
2022-11-19T23:06:15.573Z,60.50
2022-11-19T23:08:44.255Z,60.40
2022-11-19T23:11:14.676Z,60.30
2022-11-19T23:13:44.554Z,60.40
2022-11-19T23:16:12.014Z,60.40
2022-11-19T23:18:52.073Z,60.50
2022-11-19T23:21:23.911Z,60.60
2022-11-19T23:23:51.729Z,60.50
2022-11-19T23:26:24.180Z,60.50
2022-11-19T23:28:53.455Z,60.30
2022-11-19T23:31:33.738Z,60.40
2022-11-19T23:34:01.600Z,60.30
2022-11-19T23:36:36.316Z,60.60
2022-11-19T23:39:05.591Z,60.60
2022-11-19T23:41:34.407Z,60.60
2022-11-19T23:44:02.318Z,60.50
2022-11-19T23:46:35.812Z,60.30
2022-11-19T23:49:05.483Z,60.50
2022-11-19T23:51:38.326Z,60.30
2022-11-19T23:54:06.823Z,60.40
2022-11-19T23:56:36.180Z,60.40
2022-11-19T23:59:05.889Z,60.30
